createdAt,value
2023-10-01T00:00:18.648Z,69.50
2023-10-01T00:02:46.485Z,69.87
2023-10-01T00:05:13.577Z,69.85
2023-10-01T00:07:40.424Z,69.52
2023-10-01T00:10:17.048Z,69.31
2023-10-01T00:12:49.109Z,69.24
2023-10-01T00:15:18.048Z,69.37
2023-10-01T00:17:46.803Z,69.14
2023-10-01T00:20:23.632Z,68.99
2023-10-01T00:22:58.712Z,68.95
2023-10-01T00:25:26.027Z,68.68
2023-10-01T00:27:52.953Z,68.82
2023-10-01T00:30:20.006Z,69.01
2023-10-01T00:32:47.257Z,69.29
2023-10-01T00:35:13.968Z,69.24
2023-10-01T00:37:41.064Z,69.13
2023-10-01T00:40:11.709Z,68.61
2023-10-01T00:42:39.896Z,68.81
2023-10-01T00:45:09.168Z,68.76
2023-10-01T00:47:41.535Z,68.97
2023-10-01T00:50:17.390Z,69.55
2023-10-01T00:52:46.059Z,69.77
2023-10-01T00:55:15.009Z,69.67
2023-10-01T00:57:42.581Z,69.67
2023-10-01T01:00:13.581Z,69.81
2023-10-01T01:02:58.735Z,69.75
2023-10-01T01:05:27.157Z,70.17
2023-10-01T01:07:55.736Z,69.67
2023-10-01T01:10:27.180Z,70.06
2023-10-01T01:12:55.694Z,70.10
2023-10-01T01:15:22.704Z,70.17
2023-10-01T01:17:52.156Z,70.60
2023-10-01T01:20:20.994Z,70.54
2023-10-01T01:22:52.606Z,70.42
2023-10-01T01:25:22.434Z,70.51
2023-10-01T01:27:49.398Z,70.39
2023-10-01T01:30:20.023Z,70.00
2023-10-01T01:32:54.319Z,69.59
2023-10-01T01:35:29.374Z,69.86
2023-10-01T01:37:57.563Z,69.67
2023-10-01T01:40:33.132Z,69.97
2023-10-01T01:43:05.797Z,69.71
2023-10-01T01:45:34.306Z,69.78
2023-10-01T01:48:22.615Z,69.54
2023-10-01T01:50:49.719Z,69.21
2023-10-01T01:53:19.419Z,69.16
2023-10-01T01:55:46.553Z,69.27
2023-10-01T01:58:16.594Z,69.09
2023-10-01T02:01:04.207Z,69.28
2023-10-01T02:03:35.023Z,69.26
2023-10-01T02:06:02.518Z,69.45
2023-10-01T02:08:48.477Z,69.50
2023-10-01T02:11:15.957Z,69.82
2023-10-01T02:13:46.630Z,69.62
2023-10-01T02:16:29.986Z,68.93
2023-10-01T02:19:19.401Z,68.60
2023-10-01T02:21:53.982Z,68.87
2023-10-01T02:24:38.776Z,69.05
2023-10-01T02:27:06.303Z,69.69
2023-10-01T02:29:33.781Z,69.63
2023-10-01T02:32:06.592Z,70.09
2023-10-01T02:34:33.775Z,70.70
2023-10-01T02:37:05.331Z,70.52
2023-10-01T02:39:32.106Z,70.26
2023-10-01T02:42:08.732Z,70.06
2023-10-01T02:44:41.388Z,70.80
2023-10-01T02:47:18.468Z,70.73
2023-10-01T02:49:59.348Z,70.51
2023-10-01T02:52:33.469Z,69.94
2023-10-01T02:55:01.895Z,69.89
2023-10-01T02:57:34.479Z,69.82
2023-10-01T03:00:13.242Z,69.86
2023-10-01T03:02:42.682Z,69.66
2023-10-01T03:05:19.852Z,70.05
2023-10-01T03:07:51.721Z,69.87
2023-10-01T03:10:32.415Z,70.08
2023-10-01T03:13:00.968Z,69.53
2023-10-01T03:15:30.134Z,69.59
2023-10-01T03:18:06.970Z,69.76
2023-10-01T03:20:40.417Z,70.61
2023-10-01T03:23:12.053Z,70.58
2023-10-01T03:25:56.757Z,71.17
2023-10-01T03:28:27.699Z,71.08
2023-10-01T03:31:09.308Z,71.10
2023-10-01T03:33:44.113Z,70.90
2023-10-01T03:36:12.615Z,71.15
2023-10-01T03:38:45.890Z,71.43
2023-10-01T03:41:22.825Z,71.87
2023-10-01T03:44:10.360Z,72.30
2023-10-01T03:46:47.623Z,72.06
2023-10-01T03:49:32.873Z,71.65
2023-10-01T03:52:00.094Z,71.20
2023-10-01T03:54:48.457Z,71.59
2023-10-01T03:57:18.446Z,70.52
2023-10-01T03:59:55.710Z,69.96
2023-10-01T04:02:47.455Z,69.67
2023-10-01T04:05:45.296Z,69.67
2023-10-01T04:08:12.798Z,69.96
2023-10-01T04:10:40.585Z,70.10
2023-10-01T04:13:14.038Z,69.46
2023-10-01T04:15:42.928Z,70.31
2023-10-01T04:18:16.129Z,70.27
2023-10-01T04:21:09.135Z,70.86
2023-10-01T04:23:49.939Z,71.15
2023-10-01T04:26:20.890Z,71.21
2023-10-01T04:28:51.680Z,70.78
2023-10-01T04:31:21.276Z,70.77
2023-10-01T04:33:50.711Z,70.53
2023-10-01T04:36:20.472Z,70.37
2023-10-01T04:38:52.700Z,70.50
2023-10-01T04:41:20.210Z,70.54
2023-10-01T04:43:56.820Z,70.27
2023-10-01T04:46:31.408Z,70.30
2023-10-01T04:48:59.028Z,69.58
2023-10-01T04:51:46.004Z,69.78
2023-10-01T04:54:22.181Z,69.60
2023-10-01T04:56:50.461Z,69.69
2023-10-01T04:59:18.248Z,69.32
2023-10-01T05:01:45.314Z,69.05
2023-10-01T05:04:12.999Z,69.46
2023-10-01T05:06:44.145Z,69.92
2023-10-01T05:09:15.646Z,70.11
2023-10-01T05:11:43.724Z,69.79
2023-10-01T05:14:13.368Z,70.06
2023-10-01T05:16:40.914Z,70.13
2023-10-01T05:19:11.235Z,69.82
2023-10-01T05:21:48.987Z,70.30
2023-10-01T05:24:17.211Z,70.40
2023-10-01T05:26:47.113Z,70.28
2023-10-01T05:29:21.377Z,70.52
2023-10-01T05:31:48.815Z,70.15
2023-10-01T05:34:16.103Z,70.24
2023-10-01T05:36:42.927Z,70.37
2023-10-01T05:39:12.912Z,70.22
2023-10-01T05:41:45.656Z,69.73
2023-10-01T05:44:12.781Z,69.81
2023-10-01T05:46:39.614Z,69.51
2023-10-01T05:49:09.708Z,69.50
2023-10-01T05:51:46.363Z,69.42
2023-10-01T05:54:20.234Z,69.67
2023-10-01T05:56:49.624Z,69.27
2023-10-01T05:59:17.557Z,69.44
2023-10-01T06:01:45.279Z,69.08
2023-10-01T06:04:14.238Z,69.13
2023-10-01T06:06:43.728Z,68.64
2023-10-01T06:09:15.917Z,68.46
2023-10-01T06:11:49.628Z,67.69
2023-10-01T06:14:36.565Z,67.53
2023-10-01T06:17:03.753Z,66.88
2023-10-01T06:19:34.664Z,65.85
2023-10-01T06:24:50.662Z,62.64
2023-10-01T06:27:20.329Z,60.94
2023-10-01T06:29:53.437Z,59.32
2023-10-01T06:32:22.073Z,58.45
2023-10-01T06:34:50.516Z,57.13
2023-10-01T06:37:20.135Z,54.87
2023-10-01T06:39:47.858Z,54.28
2023-10-01T06:42:22.782Z,54.01
2023-10-01T06:44:54.253Z,53.51
2023-10-01T06:47:24.005Z,52.30
2023-10-01T06:49:58.700Z,48.65
2023-10-01T06:52:28.533Z,45.58
2023-10-01T06:55:02.097Z,43.08
2023-10-01T06:57:32.432Z,39.56
2023-10-01T06:59:59.217Z,36.47
2023-10-01T07:02:29.024Z,34.37
2023-10-01T07:07:36.925Z,30.71
2023-10-01T07:10:11.648Z,28.98
2023-10-01T07:12:39.679Z,28.37
2023-10-01T07:15:07.555Z,28.00
2023-10-01T07:17:36.453Z,27.21
2023-10-01T07:20:19.891Z,26.17
2023-10-01T07:22:47.699Z,25.49
2023-10-01T07:25:34.432Z,24.38
2023-10-01T07:28:02.099Z,24.26
2023-10-01T07:30:41.083Z,23.45
2023-10-01T07:33:08.224Z,23.10
2023-10-01T07:35:45.618Z,22.79
2023-10-01T07:38:16.137Z,22.09
2023-10-01T07:40:58.891Z,21.71
2023-10-01T07:43:26.772Z,21.46
2023-10-01T07:45:59.281Z,21.40
2023-10-01T07:48:30.765Z,20.41
2023-10-01T07:50:59.365Z,20.22
2023-10-01T07:53:34.210Z,20.10
2023-10-01T07:56:08.163Z,20.45
2023-10-01T07:58:51.899Z,21.33
2023-10-01T08:01:38.051Z,22.26
2023-10-01T08:04:20.884Z,22.66
2023-10-01T08:06:50.671Z,22.17
2023-10-01T08:09:18.425Z,20.24
2023-10-01T08:12:06.311Z,20.22
2023-10-01T08:14:37.236Z,19.26
2023-10-01T08:17:07.263Z,18.10
2023-10-01T08:19:45.712Z,17.53
2023-10-01T08:22:15.211Z,17.06
2023-10-01T08:24:46.970Z,17.11
2023-10-01T08:27:15.164Z,16.38
2023-10-01T08:30:00.280Z,16.18
2023-10-01T08:32:39.622Z,15.78
2023-10-01T08:35:07.875Z,15.95
2023-10-01T08:37:38.886Z,15.83
2023-10-01T08:40:15.747Z,15.20
2023-10-01T08:42:46.242Z,15.08
2023-10-01T08:45:18.275Z,15.69
2023-10-01T08:47:49.145Z,15.82
2023-10-01T08:50:29.301Z,15.61
2023-10-01T08:52:58.646Z,15.51
2023-10-01T08:56:01.352Z,15.77
2023-10-01T08:58:29.502Z,15.67
2023-10-01T09:01:12.752Z,15.32
2023-10-01T09:03:40.882Z,15.13
2023-10-01T09:06:09.882Z,14.00
2023-10-01T09:08:44.426Z,14.19
2023-10-01T09:11:17.132Z,14.09
2023-10-01T09:13:59.890Z,13.91
2023-10-01T09:16:33.605Z,12.97
2023-10-01T09:19:31.023Z,12.70
2023-10-01T09:22:08.900Z,12.20
2023-10-01T09:24:39.234Z,12.39
2023-10-01T09:27:26.174Z,12.14
2023-10-01T09:30:26.382Z,12.22
2023-10-01T09:33:06.920Z,11.91
2023-10-01T09:35:51.044Z,11.76
2023-10-01T09:38:21.211Z,11.99
2023-10-01T09:40:48.604Z,11.86
2023-10-01T09:43:20.350Z,11.34
2023-10-01T09:45:49.504Z,11.75
2023-10-01T09:48:37.978Z,11.59
2023-10-01T09:51:09.745Z,11.07
2023-10-01T09:54:01.396Z,11.18
2023-10-01T09:56:44.698Z,11.23
2023-10-01T09:59:12.787Z,11.06
2023-10-01T10:01:41.248Z,10.29
2023-10-01T10:04:11.575Z,10.72
2023-10-01T10:06:40.603Z,10.45
2023-10-01T10:09:26.641Z,9.89
2023-10-01T10:11:55.740Z,9.38
2023-10-01T10:14:28.139Z,9.71
2023-10-01T10:17:08.597Z,9.90
2023-10-01T10:20:21.011Z,10.22
2023-10-01T10:23:15.659Z,10.18
2023-10-01T10:25:44.865Z,9.88
2023-10-01T10:28:14.021Z,10.54
2023-10-01T10:30:42.487Z,9.35
2023-10-01T10:33:15.357Z,9.44
2023-10-01T10:35:50.350Z,10.18
2023-10-01T10:38:52.481Z,10.26
2023-10-01T10:41:20.977Z,9.71
2023-10-01T10:44:10.535Z,9.91
2023-10-01T10:47:01.838Z,9.56
2023-10-01T10:49:53.591Z,9.50
2023-10-01T10:52:32.868Z,10.12
2023-10-01T10:55:21.330Z,9.98
2023-10-01T10:57:49.482Z,9.92
2023-10-01T11:00:29.149Z,10.22
2023-10-01T11:02:58.093Z,8.75
2023-10-01T11:05:30.396Z,9.70
2023-10-01T11:08:00.561Z,10.31
2023-10-01T11:10:30.573Z,10.16
2023-10-01T11:12:57.917Z,10.40
2023-10-01T11:15:36.179Z,9.75
2023-10-01T11:18:03.250Z,10.31
2023-10-01T11:20:37.784Z,10.05
2023-10-01T11:23:09.901Z,10.75
2023-10-01T11:25:41.693Z,10.65
2023-10-01T11:28:10.029Z,10.24
2023-10-01T11:30:43.830Z,10.20
2023-10-01T11:33:12.905Z,10.69
2023-10-01T11:35:42.044Z,10.51
2023-10-01T11:38:09.986Z,10.64
2023-10-01T11:40:57.277Z,10.09
2023-10-01T11:43:28.932Z,10.57
2023-10-01T11:46:22.475Z,10.16
2023-10-01T11:49:06.160Z,11.26
2023-10-01T11:51:46.817Z,10.62
2023-10-01T11:54:17.280Z,10.89
2023-10-01T11:57:06.743Z,11.10
2023-10-01T11:59:36.387Z,10.98
2023-10-01T12:02:22.708Z,10.86
2023-10-01T12:05:01.290Z,11.08
2023-10-01T12:07:34.040Z,11.53
2023-10-01T12:10:05.955Z,11.48
2023-10-01T12:12:38.283Z,11.78
2023-10-01T12:15:24.796Z,12.85
2023-10-01T12:17:51.583Z,12.74
2023-10-01T12:20:29.753Z,13.57
2023-10-01T12:23:15.296Z,15.61
2023-10-01T12:25:47.312Z,16.24
2023-10-01T12:28:25.435Z,16.48
2023-10-01T12:30:59.993Z,17.90
2023-10-01T12:33:40.146Z,18.49
2023-10-01T12:36:29.908Z,20.76
2023-10-01T12:39:12.762Z,21.28
2023-10-01T12:41:54.285Z,21.94
2023-10-01T12:44:33.882Z,23.96
2023-10-01T12:47:16.376Z,23.31
2023-10-01T12:50:00.161Z,24.12
2023-10-01T12:52:31.461Z,24.73
2023-10-01T12:55:02.028Z,25.66
2023-10-01T12:57:34.853Z,25.87
2023-10-01T13:00:20.165Z,25.68
2023-10-01T13:02:49.072Z,26.22
2023-10-01T13:05:21.472Z,25.36
2023-10-01T13:07:53.264Z,25.19
2023-10-01T13:10:34.323Z,26.00
2023-10-01T13:13:06.214Z,27.22
2023-10-01T13:15:38.709Z,26.93
2023-10-01T13:18:15.705Z,27.10
2023-10-01T13:20:49.495Z,27.38
2023-10-01T13:23:16.436Z,27.34
2023-10-01T13:25:48.208Z,27.81
2023-10-01T13:28:22.284Z,28.18
2023-10-01T13:31:01.315Z,29.09
2023-10-01T13:33:48.065Z,28.97
2023-10-01T13:36:24.296Z,28.75
2023-10-01T13:38:58.229Z,28.68
2023-10-01T13:41:25.283Z,28.93
2023-10-01T13:44:10.647Z,29.13
2023-10-01T13:46:56.078Z,29.16
2023-10-01T13:49:41.742Z,29.56
2023-10-01T13:52:27.324Z,30.43
2023-10-01T13:55:12.673Z,30.09
2023-10-01T13:57:58.122Z,29.79
2023-10-01T14:00:43.576Z,29.00
2023-10-01T14:03:29.008Z,29.85
2023-10-01T14:06:14.649Z,31.30
2023-10-01T14:08:44.356Z,30.88
2023-10-01T14:11:12.837Z,30.92
2023-10-01T14:13:45.126Z,30.70
2023-10-01T14:16:13.747Z,31.37
2023-10-01T14:18:41.512Z,30.84
2023-10-01T14:21:14.688Z,31.93
2023-10-01T14:23:43.944Z,31.40
2023-10-01T14:26:36.822Z,31.23
2023-10-01T14:29:07.232Z,31.25
2023-10-01T14:31:49.819Z,31.85
2023-10-01T14:34:21.807Z,31.43
2023-10-01T14:36:53.353Z,30.93
2023-10-01T14:39:20.525Z,31.33
2023-10-01T14:41:47.356Z,31.62
2023-10-01T14:44:25.641Z,30.66
2023-10-01T14:46:57.651Z,31.28
2023-10-01T14:49:24.934Z,30.75
2023-10-01T14:51:55.194Z,31.52
2023-10-01T14:54:22.143Z,31.30
2023-10-01T14:56:56.433Z,32.22
2023-10-01T14:59:25.605Z,32.19
2023-10-01T15:01:53.320Z,30.88
2023-10-01T15:04:23.127Z,31.86
2023-10-01T15:06:58.141Z,32.84
2023-10-01T15:09:35.219Z,33.24
2023-10-01T15:12:03.989Z,31.92
2023-10-01T15:14:42.228Z,31.75
2023-10-01T15:17:18.684Z,31.75
2023-10-01T15:19:53.823Z,33.55
2023-10-01T15:22:20.965Z,33.44
2023-10-01T15:24:49.450Z,33.22
2023-10-01T15:27:26.495Z,33.59
2023-10-01T15:29:54.307Z,33.48
2023-10-01T15:32:21.573Z,33.80
2023-10-01T15:34:57.769Z,34.27
2023-10-01T15:37:31.284Z,35.28
2023-10-01T15:40:02.576Z,34.35
2023-10-01T15:42:36.308Z,33.31
2023-10-01T15:45:17.204Z,35.34
2023-10-01T15:47:46.920Z,34.50
2023-10-01T15:50:16.638Z,34.53
2023-10-01T15:52:48.628Z,34.14
2023-10-01T15:55:32.673Z,33.82
2023-10-01T15:58:04.727Z,35.01
2023-10-01T16:00:37.683Z,35.11
2023-10-01T16:03:12.963Z,35.08
2023-10-01T16:05:46.623Z,36.18
2023-10-01T16:08:22.261Z,34.65
2023-10-01T16:10:52.306Z,35.58
2023-10-01T16:13:30.162Z,35.72
2023-10-01T16:16:09.152Z,36.73
2023-10-01T16:18:38.432Z,39.58
2023-10-01T16:21:15.483Z,40.43
2023-10-01T16:23:42.639Z,41.17
2023-10-01T16:26:17.796Z,41.25
2023-10-01T16:28:47.787Z,39.75
2023-10-01T16:31:18.521Z,40.78
2023-10-01T16:33:48.052Z,40.88
2023-10-01T16:36:19.389Z,42.49
2023-10-01T16:38:54.972Z,42.76
2023-10-01T16:41:24.288Z,43.32
2023-10-01T16:43:54.851Z,43.39
2023-10-01T16:46:27.007Z,43.11
2023-10-01T16:49:01.074Z,42.65
2023-10-01T16:51:35.222Z,43.49
2023-10-01T16:54:14.516Z,44.42
2023-10-01T16:56:45.862Z,44.93
2023-10-01T16:59:13.417Z,45.46
2023-10-01T17:01:40.608Z,45.46
2023-10-01T17:04:28.085Z,46.38
2023-10-01T17:06:57.189Z,46.57
2023-10-01T17:09:34.344Z,47.08
2023-10-01T17:12:02.874Z,47.56
2023-10-01T17:14:29.714Z,48.14
2023-10-01T17:16:58.833Z,48.64
2023-10-01T17:19:33.803Z,48.87
2023-10-01T17:22:09.015Z,48.83
2023-10-01T17:24:44.194Z,49.78
2023-10-01T17:27:20.476Z,49.66
2023-10-01T17:29:48.871Z,49.61
2023-10-01T17:32:20.146Z,50.12
2023-10-01T17:34:48.163Z,50.05
2023-10-01T17:37:23.717Z,50.67
2023-10-01T17:39:57.160Z,50.68
2023-10-01T17:42:26.456Z,51.36
2023-10-01T17:44:55.776Z,51.88
2023-10-01T17:47:23.585Z,51.74
2023-10-01T17:49:55.205Z,52.30
2023-10-01T17:52:29.642Z,52.41
2023-10-01T17:55:03.765Z,52.41
2023-10-01T17:57:37.998Z,52.45
2023-10-01T18:00:15.390Z,52.33
2023-10-01T18:02:43.186Z,52.38
2023-10-01T18:05:19.750Z,52.78
2023-10-01T18:07:57.127Z,52.62
2023-10-01T18:10:44.084Z,51.85
2023-10-01T18:13:16.813Z,51.63
2023-10-01T18:15:56.437Z,52.63
2023-10-01T18:18:28.064Z,53.42
2023-10-01T18:20:59.701Z,54.13
2023-10-01T18:23:27.375Z,55.39
2023-10-01T18:25:56.160Z,55.55
2023-10-01T18:28:25.600Z,56.10
2023-10-01T18:30:55.345Z,56.43
2023-10-01T18:33:23.999Z,56.15
2023-10-01T18:35:57.143Z,56.08
2023-10-01T18:38:32.066Z,56.03
2023-10-01T18:41:00.620Z,56.04
2023-10-01T18:43:28.143Z,56.31
2023-10-01T18:45:58.151Z,56.71
2023-10-01T18:48:39.981Z,57.07
2023-10-01T18:51:13.005Z,55.92
2023-10-01T18:53:42.233Z,55.64
2023-10-01T18:56:09.978Z,56.08
2023-10-01T18:58:38.552Z,55.38
2023-10-01T19:01:06.530Z,55.08
2023-10-01T19:03:35.343Z,54.52
2023-10-01T19:06:03.282Z,53.94
2023-10-01T19:08:31.818Z,53.65
2023-10-01T19:11:03.309Z,52.87
2023-10-01T19:13:35.014Z,52.52
2023-10-01T19:16:03.142Z,53.22
2023-10-01T19:18:30.869Z,53.66
2023-10-01T19:20:59.779Z,54.23
2023-10-01T19:23:33.650Z,55.02
2023-10-01T19:26:02.796Z,55.08
2023-10-01T19:28:30.626Z,56.34
2023-10-01T19:30:58.485Z,56.71
2023-10-01T19:33:26.023Z,56.88
2023-10-01T19:35:53.962Z,56.95
2023-10-01T19:38:22.102Z,57.19
2023-10-01T19:40:50.369Z,57.38
2023-10-01T19:43:27.288Z,57.75
2023-10-01T19:45:54.644Z,57.95
2023-10-01T19:48:23.266Z,57.52
2023-10-01T19:50:52.100Z,57.31
2023-10-01T19:53:23.869Z,57.51
2023-10-01T19:55:59.795Z,57.55
2023-10-01T19:58:34.650Z,57.75
2023-10-01T20:01:08.520Z,57.90
2023-10-01T20:03:36.281Z,57.69
2023-10-01T20:06:06.195Z,57.30
2023-10-01T20:08:37.924Z,57.85
2023-10-01T20:11:12.272Z,58.43
2023-10-01T20:13:40.592Z,58.56
2023-10-01T20:16:11.764Z,58.76
2023-10-01T20:18:39.701Z,58.58
2023-10-01T20:21:19.046Z,59.14
2023-10-01T20:23:45.937Z,59.33
2023-10-01T20:26:21.011Z,60.28
2023-10-01T20:28:51.674Z,59.99
2023-10-01T20:31:19.791Z,60.43
2023-10-01T20:33:52.846Z,60.65
2023-10-01T20:36:20.596Z,60.17
2023-10-01T20:38:53.265Z,60.47
2023-10-01T20:41:22.624Z,60.59
2023-10-01T20:43:57.610Z,60.42
2023-10-01T20:46:25.261Z,60.28
2023-10-01T20:49:00.539Z,60.33
2023-10-01T20:51:37.811Z,60.16
2023-10-01T20:54:22.604Z,60.34
2023-10-01T20:56:53.627Z,60.61
2023-10-01T20:59:21.586Z,60.66
2023-10-01T21:01:49.943Z,60.88
2023-10-01T21:04:26.740Z,60.72
2023-10-01T21:07:09.472Z,60.88
2023-10-01T21:09:39.386Z,60.48
2023-10-01T21:12:13.692Z,60.54
2023-10-01T21:14:48.411Z,60.48
2023-10-01T21:17:37.182Z,60.51
2023-10-01T21:20:18.903Z,60.61
2023-10-01T21:22:47.884Z,60.52
2023-10-01T21:25:25.699Z,60.67
2023-10-01T21:27:58.278Z,61.14
2023-10-01T21:30:28.511Z,61.13
2023-10-01T21:32:56.827Z,61.50
2023-10-01T21:35:24.449Z,61.83
2023-10-01T21:37:51.577Z,61.39
2023-10-01T21:40:22.830Z,61.60
2023-10-01T21:42:53.281Z,62.36
2023-10-01T21:45:28.954Z,62.44
2023-10-01T21:48:03.914Z,63.20
2023-10-01T21:50:37.505Z,63.91
2023-10-01T21:53:12.432Z,63.66
2023-10-01T21:55:39.947Z,63.97
2023-10-01T21:58:07.307Z,63.73
2023-10-01T22:01:02.140Z,63.99
2023-10-01T22:03:35.544Z,63.98
2023-10-01T22:06:06.669Z,64.06
2023-10-01T22:08:33.726Z,64.03
2023-10-01T22:11:01.504Z,63.83
2023-10-01T22:13:32.644Z,63.93
2023-10-01T22:16:02.740Z,64.14
2023-10-01T22:18:32.657Z,64.18
2023-10-01T22:21:07.548Z,64.36
2023-10-01T22:23:35.974Z,64.13
2023-10-01T22:26:05.609Z,64.16
2023-10-01T22:28:33.999Z,64.72
2023-10-01T22:31:10.737Z,64.64
2023-10-01T22:33:38.806Z,64.56
2023-10-01T22:36:15.726Z,64.63
2023-10-01T22:38:42.505Z,65.09
2023-10-01T22:41:13.377Z,65.63
2023-10-01T22:43:57.405Z,65.68
2023-10-01T22:46:24.423Z,66.42
2023-10-01T22:48:52.690Z,66.01
2023-10-01T22:51:22.747Z,65.83
2023-10-01T22:53:50.207Z,66.11
2023-10-01T22:56:18.194Z,66.57
2023-10-01T22:58:45.330Z,68.02
2023-10-01T23:01:19.601Z,67.48
2023-10-01T23:03:46.834Z,67.96
2023-10-01T23:06:15.045Z,67.68
2023-10-01T23:08:51.342Z,68.05
2023-10-01T23:11:24.666Z,67.54
2023-10-01T23:13:55.208Z,67.39
2023-10-01T23:16:22.970Z,67.50
2023-10-01T23:18:52.896Z,67.21
2023-10-01T23:21:20.481Z,67.22
2023-10-01T23:23:47.581Z,67.33
2023-10-01T23:26:20.021Z,67.03
2023-10-01T23:29:08.623Z,67.33
2023-10-01T23:31:48.994Z,67.48
2023-10-01T23:34:20.117Z,67.67
2023-10-01T23:36:50.950Z,68.06
2023-10-01T23:39:30.449Z,69.16
2023-10-01T23:42:01.920Z,68.58
2023-10-01T23:44:29.007Z,68.65
2023-10-01T23:46:57.948Z,68.68
2023-10-01T23:49:28.791Z,68.02
2023-10-01T23:52:04.086Z,68.46
2023-10-01T23:54:37.602Z,68.38
2023-10-01T23:57:13.872Z,68.31
2023-10-01T23:59:51.576Z,68.55
